Time;durP1;ratioP1;P1;durP2;ratioP2;P2;SDS_P1;SDS_P2;PMS_P1;PMS_P2;Temp;Humidity;BMP_temperature;BMP_pressure;BME280_temperature;BME280_humidity;BME280_pressure;Samples;Min_cycle;Max_cycle;Signal;HPM_P1;HPM_P2
2023/02/13 00:00:49;;;;;;;5.77;2.53;;;;;;;;;;4975488;28;20070;-71
2023/02/13 00:03:15;;;;;;;6.90;2.97;;;;;;;;;;4975554;28;20096;-71
2023/02/13 00:05:42;;;;;;;6.73;2.80;;;;;;;;;;4975328;28;20050;-71
2023/02/13 00:08:08;;;;;;;7.03;2.97;;;;;;;;;;4975645;28;20096;-71
2023/02/13 00:10:34;;;;;;;7.37;2.50;;;;;;;;;;4959374;28;20042;-71
2023/02/13 00:13:00;;;;;;;4.13;2.63;;;;;;;;;;4991222;28;20046;-71
2023/02/13 00:15:26;;;;;;;5.60;2.80;;;;;;;;;;4958815;28;20046;-70
2023/02/13 00:17:51;;;;;;;3.73;2.77;;;;;;;;;;4975981;28;20105;-70
2023/02/13 00:20:17;;;;;;;6.43;2.90;;;;;;;;;;4959223;28;20035;-70
2023/02/13 00:22:43;;;;;;;5.27;2.67;;;;;;;;;;4974271;28;20100;-70
2023/02/13 00:25:08;;;;;;;8.23;3.13;;;;;;;;;;4957388;28;20030;-71
2023/02/13 00:27:34;;;;;;;5.60;2.70;;;;;;;;;;4957694;28;20381;-70
2023/02/13 00:30:01;;;;;;;4.43;2.77;;;;;;;;;;4957747;28;20030;-70
2023/02/13 00:32:32;;;;;;;7.97;3.22;;;;;;;;;;4974394;28;20057;-71
2023/02/13 00:34:58;;;;;;;6.57;3.03;;;;;;;;;;4957981;28;20046;-71
2023/02/13 00:37:24;;;;;;;3.40;2.63;;;;;;;;;;4974691;28;20107;-70
2023/02/13 00:39:51;;;;;;;7.70;3.00;;;;;;;;;;4959540;28;20034;-71
2023/02/13 00:42:17;;;;;;;3.67;2.57;;;;;;;;;;4991839;28;20038;-72
2023/02/13 00:44:44;;;;;;;6.40;3.30;;;;;;;;;;4963238;28;20030;-71
2023/02/13 00:47:13;;;;;;;4.83;3.07;;;;;;;;;;4979310;28;20528;-72
2023/02/13 00:49:39;;;;;;;6.77;3.60;;;;;;;;;;4963329;28;20038;-71
2023/02/13 00:52:04;;;;;;;3.30;2.40;;;;;;;;;;4995353;28;20061;-70
2023/02/13 00:54:30;;;;;;;5.20;3.00;;;;;;;;;;4963147;28;20058;-70
2023/02/13 00:56:56;;;;;;;5.63;3.17;;;;;;;;;;4963056;28;20096;-70
2023/02/13 00:59:21;;;;;;;7.50;2.80;;;;;;;;;;4978943;28;20053;-71
2023/02/13 01:01:47;;;;;;;5.63;2.90;;;;;;;;;;4962988;28;20061;-71
2023/02/13 01:04:13;;;;;;;8.43;2.80;;;;;;;;;;4995178;28;20038;-71
2023/02/13 01:06:39;;;;;;;5.00;3.07;;;;;;;;;;4962900;28;20461;-69
2023/02/13 01:09:05;;;;;;;7.57;3.00;;;;;;;;;;4995065;28;20129;-69
2023/02/13 01:11:31;;;;;;;6.47;3.07;;;;;;;;;;4962914;28;20457;-69
2023/02/13 01:13:59;;;;;;;6.03;2.87;;;;;;;;;;4978604;28;20125;-69
2023/02/13 01:16:25;;;;;;;5.67;2.97;;;;;;;;;;4962443;28;20124;-69
2023/02/13 01:18:52;;;;;;;5.70;3.03;;;;;;;;;;4978715;28;20141;-69
2023/02/13 01:21:19;;;;;;;9.20;3.23;;;;;;;;;;4962196;28;20121;-69
2023/02/13 01:23:45;;;;;;;9.63;3.50;;;;;;;;;;4978196;28;20045;-69
2023/02/13 01:26:14;;;;;;;3.93;2.93;;;;;;;;;;4961443;28;20034;-70
2023/02/13 01:28:40;;;;;;;5.53;3.30;;;;;;;;;;4977755;28;20093;-70
2023/02/13 01:31:06;;;;;;;6.23;3.13;;;;;;;;;;4962723;28;20038;-71
2023/02/13 01:33:31;;;;;;;9.07;3.60;;;;;;;;;;4978820;28;20473;-70
2023/02/13 01:35:57;;;;;;;8.03;3.10;;;;;;;;;;4962429;28;20042;-69
2023/02/13 01:38:22;;;;;;;3.57;2.43;;;;;;;;;;4978190;28;20088;-69
2023/02/13 01:40:52;;;;;;;5.47;3.03;;;;;;;;;;4962524;28;20034;-70
2023/02/13 01:43:22;;;;;;;6.40;3.30;;;;;;;;;;4994629;28;20484;-71
2023/02/13 01:45:50;;;;;;;7.27;3.20;;;;;;;;;;4994573;28;20030;-71
2023/02/13 01:48:18;;;;;;;10.40;3.63;;;;;;;;;;4994357;28;20051;-70
2023/02/13 01:50:50;;;;;;;9.63;3.03;;;;;;;;;;4962235;28;20039;-70
2023/02/13 01:53:19;;;;;;;6.80;3.00;;;;;;;;;;4962065;28;20073;-70
2023/02/13 01:56:08;;;;;;;6.60;3.10;;;;;;;;;;4960872;28;20481;-70
2023/02/13 01:58:35;;;;;;;8.67;3.47;;;;;;;;;;4970650;28;20046;-70
2023/02/13 02:01:01;;;;;;;6.03;3.13;;;;;;;;;;4978253;28;20038;-69
2023/02/13 02:03:32;;;;;;;4.97;2.97;;;;;;;;;;4977814;28;20473;-70
2023/02/13 02:06:03;;;;;;;7.73;3.07;;;;;;;;;;4962656;28;20495;-70
2023/02/13 02:08:29;;;;;;;6.93;3.20;;;;;;;;;;4993892;28;20038;-69
2023/02/13 02:10:56;;;;;;;5.33;2.90;;;;;;;;;;4961716;28;20041;-70
2023/02/13 02:13:25;;;;;;;5.97;3.20;;;;;;;;;;4961776;28;20061;-69
2023/02/13 02:15:50;;;;;;;5.40;3.17;;;;;;;;;;4977530;28;20050;-69
2023/02/13 02:18:17;;;;;;;8.10;3.17;;;;;;;;;;4961460;28;20516;-69
2023/02/13 02:21:09;;;;;;;10.27;3.80;;;;;;;;;;4993890;28;20038;-70
2023/02/13 02:23:35;;;;;;;7.97;3.90;;;;;;;;;;4961674;28;20061;-70
2023/02/13 02:26:20;;;;;;;7.10;3.47;;;;;;;;;;4977673;28;20414;-69
2023/02/13 02:29:05;;;;;;;4.67;3.47;;;;;;;;;;4977433;28;20491;-69
2023/02/13 02:31:49;;;;;;;3.93;2.90;;;;;;;;;;4977421;28;20121;-70
2023/02/13 02:34:41;;;;;;;5.37;2.57;;;;;;;;;;4977398;28;20104;-70
2023/02/13 02:37:14;;;;;;;6.43;3.27;;;;;;;;;;4955407;28;20519;-70
2023/02/13 02:39:42;;;;;;;7.13;3.13;;;;;;;;;;4961479;28;20042;-71
2023/02/13 02:42:24;;;;;;;5.43;2.60;;;;;;;;;;4960032;28;20045;-70
2023/02/13 02:44:58;;;;;;;5.33;2.60;;;;;;;;;;4976300;28;20061;-69
2023/02/13 02:50:44;;;;;;;5.07;2.77;;;;;;;;;;4956299;28;20046;-70
2023/02/13 02:53:22;;;;;;;4.20;2.30;;;;;;;;;;4992520;28;20049;-71
2023/02/13 02:55:55;;;;;;;4.53;2.30;;;;;;;;;;4960933;28;20054;-71
2023/02/13 03:07:00;;;;;;;2.70;1.88;;;;;;;;;;4974093;28;20048;-70
2023/02/13 03:15:00;;;;;;;5.67;2.23;;;;;;;;;;4974103;28;20046;-69
2023/02/13 03:22:57;;;;;;;5.77;2.67;;;;;;;;;;4976184;28;20030;-69
2023/02/13 03:25:51;;;;;;;4.00;2.23;;;;;;;;;;4976241;28;20136;-71
2023/02/13 03:31:08;;;;;;;5.73;2.30;;;;;;;;;;4976660;28;20038;-70
2023/02/13 03:33:37;;;;;;;5.37;2.10;;;;;;;;;;4960875;28;20133;-70
2023/02/13 03:38:52;;;;;;;5.67;2.00;;;;;;;;;;4976684;28;20041;-70
2023/02/13 03:41:21;;;;;;;6.30;2.17;;;;;;;;;;4960460;28;20495;-69
2023/02/13 03:43:54;;;;;;;4.07;2.00;;;;;;;;;;4959717;28;20100;-71
2023/02/13 03:46:20;;;;;;;5.83;1.70;;;;;;;;;;4975503;28;20096;-69
2023/02/13 03:51:40;;;;;;;2.77;1.80;;;;;;;;;;4975525;28;20073;-70
2023/02/13 03:54:16;;;;;;;4.47;1.77;;;;;;;;;;4991818;28;20141;-70
2023/02/13 03:59:32;;;;;;;6.03;2.20;;;;;;;;;;4975468;28;20038;-70
2023/02/13 04:02:00;;;;;;;3.53;1.90;;;;;;;;;;4975230;28;20472;-70
2023/02/13 04:04:41;;;;;;;5.07;2.17;;;;;;;;;;4959307;28;20034;-71
2023/02/13 04:07:06;;;;;;;;;;;;;;;;;;4991947;28;20045;-71
2023/02/13 04:09:34;;;;;;;6.30;1.97;;;;;;;;;;4975225;28;19914;-70
2023/02/13 04:12:15;;;;;;;5.03;2.10;;;;;;;;;;4975265;28;20061;-69
2023/02/13 04:14:54;;;;;;;5.23;2.20;;;;;;;;;;4975263;28;20053;-71
2023/02/13 04:17:25;;;;;;;5.63;2.43;;;;;;;;;;4974810;28;20046;-70
2023/02/13 04:19:51;;;;;;;7.90;2.30;;;;;;;;;;4959140;28;20042;-70
2023/02/13 04:22:17;;;;;;;4.43;2.23;;;;;;;;;;4975356;28;20049;-69
2023/02/13 04:24:43;;;;;;;2.93;2.10;;;;;;;;;;4975592;28;20422;-69
2023/02/13 04:27:15;;;;;;;5.80;2.30;;;;;;;;;;4991603;28;20039;-68
2023/02/13 04:29:41;;;;;;;4.30;1.90;;;;;;;;;;4959948;28;20050;-66
2023/02/13 04:32:06;;;;;;;6.77;2.33;;;;;;;;;;4959803;28;20914;-66
2023/02/13 04:34:35;;;;;;;3.93;1.90;;;;;;;;;;4959832;28;20049;-67
2023/02/13 04:37:01;;;;;;;4.10;2.50;;;;;;;;;;4975047;28;20045;-66
2023/02/13 04:39:27;;;;;;;8.00;2.20;;;;;;;;;;4959208;28;20338;-66
2023/02/13 04:41:52;;;;;;;5.73;2.47;;;;;;;;;;4975288;28;20042;-66
2023/02/13 04:44:18;;;;;;;6.03;2.40;;;;;;;;;;4946030;28;20039;-72
2023/02/13 04:46:44;;;;;;;4.50;2.40;;;;;;;;;;4963864;28;20081;-68
2023/02/13 04:49:10;;;;;;;6.07;2.73;;;;;;;;;;4955126;28;20390;-67
2023/02/13 04:51:36;;;;;;;4.00;2.40;;;;;;;;;;4980646;28;20125;-69
2023/02/13 04:54:03;;;;;;;3.67;2.57;;;;;;;;;;4954962;28;20070;-71
2023/02/13 04:56:29;;;;;;;5.67;2.53;;;;;;;;;;4955561;28;20051;-72
2023/02/13 04:58:55;;;;;;;7.20;3.40;;;;;;;;;;4962831;28;20034;-70
2023/02/13 05:01:22;;;;;;;8.87;2.57;;;;;;;;;;4957338;28;20030;-70
2023/02/13 05:03:48;;;;;;;8.77;2.83;;;;;;;;;;4965641;28;20027;-76
2023/02/13 05:06:14;;;;;;;5.53;2.40;;;;;;;;;;4957052;28;20385;-69
2023/02/13 05:08:39;;;;;;;7.50;2.33;;;;;;;;;;4965748;28;20523;-69
2023/02/13 05:11:05;;;;;;;5.23;2.87;;;;;;;;;;4965223;28;20049;-68
2023/02/13 05:13:31;;;;;;;4.53;2.80;;;;;;;;;;4964014;28;20034;-67
2023/02/13 05:15:57;;;;;;;5.87;3.03;;;;;;;;;;4954496;28;20388;-67
2023/02/13 05:18:22;;;;;;;6.83;3.30;;;;;;;;;;4967006;28;20055;-68
2023/02/13 05:23:21;;;;;;;7.90;2.97;;;;;;;;;;4956823;28;20030;-70
2023/02/13 05:23:35;;;;;;;10.33;3.87;;;;;;;;;;4966744;28;20452;-73
2023/02/13 05:26:01;;;;;;;5.63;2.67;;;;;;;;;;4955098;28;20035;-72
2023/02/13 05:29:28;;;;;;;10.60;3.20;;;;;;;;;;4980820;28;20048;-69
2023/02/13 05:31:24;;;;;;;7.27;4.03;;;;;;;;;;4959092;28;20061;-70
2023/02/13 05:33:52;;;;;;;8.37;3.30;;;;;;;;;;4981832;28;20535;-72
2023/02/13 05:36:17;;;;;;;5.90;2.77;;;;;;;;;;4981235;28;20042;-74
2023/02/13 05:38:43;;;;;;;9.33;2.97;;;;;;;;;;4967091;28;20380;-73
2023/02/13 05:41:09;;;;;;;11.53;3.80;;;;;;;;;;4959987;28;20087;-71
2023/02/13 05:43:34;;;;;;;6.63;2.33;;;;;;;;;;4967638;28;20034;-74
2023/02/13 05:46:01;;;;;;;6.33;2.77;;;;;;;;;;4958673;28;20054;-72
2023/02/13 05:48:27;;;;;;;5.63;3.37;;;;;;;;;;4982842;28;20117;-75
2023/02/13 05:50:53;;;;;;;7.90;2.70;;;;;;;;;;4972325;28;20146;-71
2023/02/13 05:53:21;;;;;;;6.23;2.63;;;;;;;;;;4964781;28;20038;-72
2023/02/13 05:55:46;;;;;;;3.97;2.10;;;;;;;;;;4961619;28;20058;-72
2023/02/13 05:58:14;;;;;;;3.63;2.37;;;;;;;;;;4960280;28;20037;-75
2023/02/13 06:00:40;;;;;;;5.03;2.30;;;;;;;;;;4985824;28;20038;-72
2023/02/13 06:03:06;;;;;;;3.03;2.20;;;;;;;;;;4961411;28;20026;-75
2023/02/13 06:05:34;;;;;;;3.57;2.20;;;;;;;;;;4983588;28;20057;-73
2023/02/13 06:07:59;;;;;;;5.27;2.17;;;;;;;;;;4993797;28;20038;-73
2023/02/13 06:10:27;;;;;;;3.97;2.50;;;;;;;;;;4988177;28;20480;-74
2023/02/13 06:12:53;;;;;;;2.50;2.03;;;;;;;;;;4974660;28;20029;-73
2023/02/13 06:15:21;;;;;;;4.53;1.97;;;;;;;;;;4998132;28;20046;-74
2023/02/13 06:17:47;;;;;;;7.33;2.50;;;;;;;;;;4960890;28;20449;-73
2023/02/13 06:20:13;;;;;;;4.53;2.20;;;;;;;;;;4950573;28;20103;-73
2023/02/13 06:22:39;;;;;;;5.33;2.00;;;;;;;;;;4959278;28;20033;-71
2023/02/13 06:25:05;;;;;;;4.60;2.90;;;;;;;;;;4970339;28;20041;-75
2023/02/13 06:27:31;;;;;;;8.03;4.00;;;;;;;;;;4986832;28;20053;-74
2023/02/13 06:29:57;;;;;;;8.37;2.60;;;;;;;;;;4969472;28;20063;-75
2023/02/13 06:32:22;;;;;;;4.27;2.17;;;;;;;;;;4977177;28;20037;-74
2023/02/13 06:34:50;;;;;;;2.43;1.90;;;;;;;;;;4985805;28;20042;-74
2023/02/13 06:37:17;;;;;;;4.17;1.90;;;;;;;;;;4970263;28;20033;-72
2023/02/13 06:39:44;;;;;;;3.20;2.37;;;;;;;;;;4984487;28;20053;-72
2023/02/13 06:42:13;;;;;;;2.60;1.90;;;;;;;;;;4969709;28;20065;-75
2023/02/13 06:44:39;;;;;;;6.60;1.90;;;;;;;;;;4966440;28;20122;-73
2023/02/13 06:47:06;;;;;;;3.10;2.03;;;;;;;;;;4959800;28;20023;-75
2023/02/13 06:49:33;;;;;;;4.73;2.07;;;;;;;;;;4964990;28;20103;-73
2023/02/13 06:51:59;;;;;;;6.27;2.30;;;;;;;;;;4992929;28;20038;-74
2023/02/13 06:54:25;;;;;;;3.17;2.07;;;;;;;;;;4961118;28;20069;-75
2023/02/13 06:56:51;;;;;;;5.67;2.63;;;;;;;;;;4962688;28;20041;-74
2023/02/13 06:59:19;;;;;;;3.23;2.00;;;;;;;;;;4979485;28;20456;-74
2023/02/13 07:01:48;;;;;;;3.73;2.10;;;;;;;;;;4963840;28;20030;-76
2023/02/13 07:04:21;;;;;;;5.00;2.00;;;;;;;;;;4990644;28;20076;-73
2023/02/13 07:06:47;;;;;;;7.22;4.15;;;;;;;;;;4977275;28;20034;-73
2023/02/13 07:09:15;;;;;;;3.47;2.00;;;;;;;;;;4995564;28;20042;-74
2023/02/13 07:11:41;;;;;;;4.97;2.27;;;;;;;;;;4978476;28;20037;-74
2023/02/13 07:14:10;;;;;;;6.33;2.53;;;;;;;;;;4978137;28;20030;-76
2023/02/13 07:16:35;;;;;;;4.73;2.40;;;;;;;;;;4962706;28;20483;-74
2023/02/13 07:19:05;;;;;;;4.40;2.53;;;;;;;;;;4995312;28;20061;-73
2023/02/13 07:21:30;;;;;;;7.73;2.83;;;;;;;;;;4962613;28;20041;-72
2023/02/13 07:23:56;;;;;;;7.10;2.30;;;;;;;;;;4978845;28;20042;-72
2023/02/13 07:26:25;;;;;;;19.30;3.23;;;;;;;;;;4962371;28;20392;-74
2023/02/13 07:28:51;;;;;;;5.90;2.40;;;;;;;;;;5012650;28;20530;-73
2023/02/13 07:31:20;;;;;;;5.40;2.60;;;;;;;;;;4979127;28;20034;-72
2023/02/13 07:33:50;;;;;;;3.43;2.23;;;;;;;;;;4994806;28;20038;-72
2023/02/13 07:36:16;;;;;;;4.47;2.20;;;;;;;;;;4979110;28;20050;-71
2023/02/13 07:38:43;;;;;;;6.50;2.33;;;;;;;;;;4946803;28;20485;-73
2023/02/13 07:41:10;;;;;;;4.63;2.37;;;;;;;;;;4993891;28;20534;-74
2023/02/13 07:43:36;;;;;;;7.03;2.73;;;;;;;;;;4978363;28;20034;-73
2023/02/13 07:46:03;;;;;;;3.87;2.17;;;;;;;;;;4978389;28;20038;-74
2023/02/13 07:48:30;;;;;;;5.87;2.57;;;;;;;;;;4977350;28;20046;-73
2023/02/13 07:51:00;;;;;;;10.70;3.07;;;;;;;;;;4977240;28;20488;-73
2023/02/13 07:53:26;;;;;;;7.00;2.67;;;;;;;;;;4977217;28;20046;-72
2023/02/13 07:55:52;;;;;;;10.40;3.20;;;;;;;;;;4977933;28;20148;-73
2023/02/13 07:58:18;;;;;;;4.97;2.90;;;;;;;;;;4978438;28;20136;-73
2023/02/13 08:00:44;;;;;;;7.47;2.60;;;;;;;;;;4978338;28;20038;-73
2023/02/13 08:03:10;;;;;;;5.57;2.83;;;;;;;;;;4978281;28;20048;-73
2023/02/13 08:05:37;;;;;;;6.13;2.33;;;;;;;;;;4994403;28;20045;-73
2023/02/13 08:08:04;;;;;;;7.60;3.00;;;;;;;;;;4962249;28;20049;-74
2023/02/13 08:13:17;;;;;;;6.87;3.30;;;;;;;;;;4994166;28;20048;-75
2023/02/13 08:15:43;;;;;;;6.70;2.80;;;;;;;;;;4978032;28;20049;-74
2023/02/13 08:18:12;;;;;;;7.73;3.23;;;;;;;;;;4978257;28;20037;-73
2023/02/13 08:20:38;;;;;;;6.87;2.70;;;;;;;;;;4993660;28;20056;-73
2023/02/13 08:23:05;;;;;;;8.40;3.00;;;;;;;;;;4990667;28;20038;-74
2023/02/13 08:25:32;;;;;;;9.93;3.17;;;;;;;;;;4942703;28;20116;-73
2023/02/13 08:27:59;;;;;;;6.30;3.40;;;;;;;;;;4959450;28;20042;-75
2023/02/13 08:30:25;;;;;;;7.90;3.20;;;;;;;;;;4977797;28;20042;-73
2023/02/13 08:32:51;;;;;;;10.47;3.80;;;;;;;;;;4961416;28;20057;-73
2023/02/13 08:35:20;;;;;;;10.43;4.13;;;;;;;;;;4977823;28;20076;-73
2023/02/13 08:37:45;;;;;;;6.20;3.53;;;;;;;;;;4961500;28;20042;-72
2023/02/13 08:40:11;;;;;;;10.63;3.80;;;;;;;;;;4977628;28;20887;-73
2023/02/13 08:42:38;;;;;;;8.87;3.70;;;;;;;;;;4961863;28;20042;-72
2023/02/13 08:45:05;;;;;;;9.57;3.43;;;;;;;;;;4977519;28;20120;-73
2023/02/13 08:47:31;;;;;;;8.97;2.93;;;;;;;;;;4961237;28;20476;-74
2023/02/13 08:50:00;;;;;;;7.77;3.43;;;;;;;;;;4977281;28;20034;-73
2023/02/13 08:52:26;;;;;;;6.03;3.20;;;;;;;;;;4977315;28;20034;-72
2023/02/13 08:54:52;;;;;;;6.40;3.30;;;;;;;;;;4973959;28;20058;-73
2023/02/13 08:57:19;;;;;;;6.27;3.67;;;;;;;;;;4974056;28;20154;-74
2023/02/13 08:59:44;;;;;;;8.60;3.53;;;;;;;;;;4958311;28;20057;-72
2023/02/13 09:02:13;;;;;;;6.97;3.63;;;;;;;;;;4958186;28;20457;-71
2023/02/13 09:04:39;;;;;;;5.87;3.40;;;;;;;;;;4971792;28;20619;-72
2023/02/13 09:07:07;;;;;;;6.60;3.00;;;;;;;;;;4944813;28;20133;-71
2023/02/13 09:09:33;;;;;;;6.50;3.23;;;;;;;;;;4959064;28;20074;-71
2023/02/13 09:12:03;;;;;;;5.83;3.30;;;;;;;;;;4958769;28;20043;-72
2023/02/13 09:14:31;;;;;;;8.60;3.90;;;;;;;;;;4958456;28;20043;-72
2023/02/13 09:17:05;;;;;;;13.07;4.40;;;;;;;;;;4958091;28;20473;-72
2023/02/13 09:19:31;;;;;;;9.80;3.90;;;;;;;;;;4975439;28;20030;-73
2023/02/13 09:21:57;;;;;;;7.70;3.93;;;;;;;;;;4958240;28;20393;-71
2023/02/13 09:24:23;;;;;;;6.50;3.83;;;;;;;;;;4958129;28;20042;-76
2023/02/13 09:26:52;;;;;;;10.17;4.30;;;;;;;;;;4974482;28;20062;-78
2023/02/13 09:29:18;;;;;;;11.80;3.87;;;;;;;;;;4958489;28;20039;-71
2023/02/13 09:31:44;;;;;;;7.43;3.80;;;;;;;;;;4957884;28;20030;-75
2023/02/13 09:34:11;;;;;;;6.07;3.83;;;;;;;;;;4957584;28;20058;-78
2023/02/13 09:36:39;;;;;;;6.43;3.50;;;;;;;;;;4941401;28;20030;-76
2023/02/13 09:39:06;;;;;;;7.53;3.57;;;;;;;;;;4942373;28;20062;-77
2023/02/13 09:41:36;;;;;;;7.17;3.80;;;;;;;;;;4974126;28;20464;-77
2023/02/13 09:44:05;;;;;;;5.23;3.30;;;;;;;;;;4942232;28;20062;-77
2023/02/13 09:46:39;;;;;;;7.43;3.93;;;;;;;;;;4957901;28;20113;-78
2023/02/13 09:49:17;;;;;;;8.33;3.60;;;;;;;;;;4942084;28;20046;-77
2023/02/13 09:51:44;;;;;;;10.67;4.17;;;;;;;;;;4949063;28;20038;-76
2023/02/13 09:54:13;;;;;;;7.60;4.20;;;;;;;;;;4944784;28;20114;-75
2023/02/13 09:56:48;;;;;;;7.10;3.10;;;;;;;;;;4960790;28;20061;-75
2023/02/13 09:59:25;;;;;;;7.97;3.90;;;;;;;;;;4977287;28;20034;-75
2023/02/13 10:01:52;;;;;;;6.30;3.50;;;;;;;;;;4961326;28;20389;-76
2023/02/13 10:04:39;;;;;;;5.10;3.30;;;;;;;;;;4961184;28;20094;-77
2023/02/13 10:07:21;;;;;;;5.87;3.07;;;;;;;;;;4945235;28;20061;-76
2023/02/13 10:10:10;;;;;;;10.13;3.53;;;;;;;;;;4961282;28;20133;-76
2023/02/13 10:12:45;;;;;;;8.93;3.53;;;;;;;;;;4992335;28;20381;-75
2023/02/13 10:15:29;;;;;;;9.97;3.70;;;;;;;;;;4976227;28;20069;-75
2023/02/13 10:17:58;;;;;;;7.93;3.40;;;;;;;;;;4944898;28;20133;-73
2023/02/13 10:20:49;;;;;;;7.67;3.63;;;;;;;;;;4960592;28;20495;-73
2023/02/13 10:23:26;;;;;;;7.97;3.73;;;;;;;;;;4945460;28;20362;-74
2023/02/13 10:25:58;;;;;;;9.87;4.47;;;;;;;;;;4960819;28;20330;-74
2023/02/13 10:28:26;;;;;;;6.10;3.13;;;;;;;;;;4945486;28;20400;-74
2023/02/13 10:30:55;;;;;;;6.10;3.50;;;;;;;;;;4943959;28;20042;-77
2023/02/13 10:33:21;;;;;;;5.50;3.60;;;;;;;;;;4944735;28;20045;-76
2023/02/13 10:36:38;;;;;;;;;;;;;;;;;;;;;
2023/02/13 10:39:23;;;;;;;9.73;3.57;;;;;;;;;;4979073;28;20469;-77
2023/02/13 10:41:58;;;;;;;9.27;3.97;;;;;;;;;;4976678;28;20038;-74
2023/02/13 10:44:58;;;;;;;6.53;3.80;;;;;;;;;;4976695;28;20066;-74
2023/02/13 10:47:43;;;;;;;6.37;3.80;;;;;;;;;;4894192;28;20052;-74
2023/02/13 10:50:14;;;;;;;11.77;4.73;;;;;;;;;;4943968;28;20053;-75
2023/02/13 10:52:49;;;;;;;13.30;4.93;;;;;;;;;;4944187;28;20088;-75
2023/02/13 10:55:14;;;;;;;8.57;4.03;;;;;;;;;;4956902;28;20054;-77
2023/02/13 10:57:46;;;;;;;9.57;4.00;;;;;;;;;;4972687;28;20461;-76
2023/02/13 11:00:14;;;;;;;8.50;4.43;;;;;;;;;;4972875;28;20478;-76
2023/02/13 11:02:40;;;;;;;25.00;4.57;;;;;;;;;;4972289;28;20443;-74
2023/02/13 11:05:09;;;;;;;10.00;4.27;;;;;;;;;;4972519;28;20503;-73
2023/02/13 11:07:36;;;;;;;7.73;4.40;;;;;;;;;;4978921;28;20046;-78
2023/02/13 11:10:12;;;;;;;8.00;4.70;;;;;;;;;;4964994;28;20036;-75
2023/02/13 11:12:38;;;;;;;7.80;4.30;;;;;;;;;;4958224;28;20030;-76
2023/02/13 11:15:05;;;;;;;8.67;4.30;;;;;;;;;;4966894;28;20042;-75
2023/02/13 11:17:38;;;;;;;20.20;5.43;;;;;;;;;;4981790;28;20137;-77
2023/02/13 11:20:24;;;;;;;12.83;4.50;;;;;;;;;;4968875;28;20050;-74
2023/02/13 11:22:50;;;;;;;7.40;4.40;;;;;;;;;;4974089;28;20063;-74
2023/02/13 11:25:19;;;;;;;7.07;3.97;;;;;;;;;;4958151;28;20503;-75
2023/02/13 11:28:06;;;;;;;7.67;4.00;;;;;;;;;;4964852;28;20022;-75
2023/02/13 11:30:36;;;;;;;7.40;4.10;;;;;;;;;;4982197;28;20373;-75
2023/02/13 11:33:20;;;;;;;9.20;4.67;;;;;;;;;;4984220;28;20411;-74
2023/02/13 11:35:46;;;;;;;8.00;3.87;;;;;;;;;;4980949;28;20038;-73
2023/02/13 11:38:21;;;;;;;8.53;3.97;;;;;;;;;;4933084;28;20462;-72
2023/02/13 11:40:52;;;;;;;7.07;4.07;;;;;;;;;;5002674;28;20049;-72
2023/02/13 11:43:28;;;;;;;6.75;3.55;;;;;;;;;;4991853;28;20369;-72
2023/02/13 11:46:04;;;;;;;10.67;5.50;;;;;;;;;;4974973;28;20453;-73
2023/02/13 11:48:31;;;;;;;11.80;4.37;;;;;;;;;;4990958;28;20066;-76
2023/02/13 11:50:59;;;;;;;9.30;4.47;;;;;;;;;;4973808;28;20034;-75
2023/02/13 11:53:45;;;;;;;7.77;4.33;;;;;;;;;;4990002;28;20063;-74
2023/02/13 11:56:12;;;;;;;7.93;3.50;;;;;;;;;;4974824;28;20112;-73
2023/02/13 11:58:40;;;;;;;5.80;3.80;;;;;;;;;;4971736;28;20142;-70
2023/02/13 12:01:08;;;;;;;6.77;3.83;;;;;;;;;;4955983;28;20378;-74
2023/02/13 12:03:33;;;;;;;6.77;4.03;;;;;;;;;;4954591;28;20455;-74
2023/02/13 12:06:02;;;;;;;9.27;3.70;;;;;;;;;;4939676;28;20134;-73
2023/02/13 12:08:29;;;;;;;9.60;4.13;;;;;;;;;;4971967;28;20034;-72
2023/02/13 12:10:56;;;;;;;11.43;4.13;;;;;;;;;;4939656;28;20494;-74
2023/02/13 12:13:37;;;;;;;6.10;3.40;;;;;;;;;;4954965;28;20103;-77
2023/02/13 12:16:13;;;;;;;6.27;3.40;;;;;;;;;;4940016;28;20046;-74
2023/02/13 12:18:41;;;;;;;6.03;3.73;;;;;;;;;;4939632;28;20097;-74
2023/02/13 12:21:07;;;;;;;5.83;3.10;;;;;;;;;;4939614;28;20049;-73
2023/02/13 12:23:47;;;;;;;7.43;3.73;;;;;;;;;;4971487;28;20035;-73
2023/02/13 12:26:22;;;;;;;10.65;4.07;;;;;;;;;;4939394;28;20057;-73
2023/02/13 12:28:50;;;;;;;6.93;3.43;;;;;;;;;;4971410;28;20041;-75
2023/02/13 12:31:34;;;;;;;6.80;3.67;;;;;;;;;;4971893;28;20043;-73
2023/02/13 12:34:03;;;;;;;7.80;3.80;;;;;;;;;;4955366;28;20070;-71
2023/02/13 12:36:35;;;;;;;18.13;6.83;;;;;;;;;;4971383;28;20047;-71
2023/02/13 12:39:00;;;;;;;11.67;4.80;;;;;;;;;;4972923;28;20039;-71
2023/02/13 12:41:45;;;;;;;11.10;4.53;;;;;;;;;;4975187;28;20035;-71
2023/02/13 12:44:15;;;;;;;5.40;3.40;;;;;;;;;;4975255;28;20384;-71
2023/02/13 12:46:59;;;;;;;5.32;3.67;;;;;;;;;;4959038;28;20034;-72
2023/02/13 12:49:31;;;;;;;9.30;3.83;;;;;;;;;;4959208;28;20035;-74
2023/02/13 12:51:57;;;;;;;8.90;3.43;;;;;;;;;;4975203;28;20077;-70
2023/02/13 12:54:22;;;;;;;8.87;3.50;;;;;;;;;;4979393;28;20093;-71
2023/02/13 12:56:48;;;;;;;7.50;4.70;;;;;;;;;;4962170;28;20133;-71
2023/02/13 12:59:17;;;;;;;10.47;4.47;;;;;;;;;;4962245;28;20452;-73
2023/02/13 13:01:48;;;;;;;10.17;4.73;;;;;;;;;;4962099;28;20042;-70
2023/02/13 13:04:29;;;;;;;5.37;3.23;;;;;;;;;;4962098;28;20081;-73
2023/02/13 13:07:17;;;;;;;9.68;3.13;;;;;;;;;;4978132;28;20164;-71
2023/02/13 13:09:42;;;;;;;7.67;3.50;;;;;;;;;;4977787;28;20038;-71
2023/02/13 13:12:25;;;;;;;5.07;2.90;;;;;;;;;;4961038;28;20030;-73
2023/02/13 13:15:15;;;;;;;8.67;2.77;;;;;;;;;;4977812;28;20061;-72
2023/02/13 13:17:43;;;;;;;8.50;2.90;;;;;;;;;;4961482;28;20056;-71
2023/02/13 13:20:27;;;;;;;6.30;2.87;;;;;;;;;;4961552;28;20045;-74
2023/02/13 13:22:55;;;;;;;8.37;2.90;;;;;;;;;;4961353;28;20042;-73
2023/02/13 13:25:53;;;;;;;11.63;4.23;;;;;;;;;;4977994;28;20058;-69
2023/02/13 13:28:21;;;;;;;6.07;2.90;;;;;;;;;;4945994;28;20038;-71
2023/02/13 13:30:47;;;;;;;7.47;3.17;;;;;;;;;;4977847;28;20037;-72
2023/02/13 13:33:13;;;;;;;4.93;3.03;;;;;;;;;;4961827;28;20042;-71
2023/02/13 13:35:41;;;;;;;11.77;4.70;;;;;;;;;;4961861;28;20396;-70
2023/02/13 13:38:20;;;;;;;6.33;3.60;;;;;;;;;;4961937;28;20041;-71
2023/02/13 13:40:55;;;;;;;7.13;4.53;;;;;;;;;;4978150;28;20138;-70
2023/02/13 13:43:24;;;;;;;5.63;3.40;;;;;;;;;;4961889;28;20067;-70
2023/02/13 13:46:10;;;;;;;5.67;3.90;;;;;;;;;;4965909;28;20415;-70
2023/02/13 13:49:02;;;;;;;8.50;3.80;;;;;;;;;;4965571;28;20053;-71
2023/02/13 13:51:29;;;;;;;7.50;3.67;;;;;;;;;;4946574;28;20034;-70
2023/02/13 13:54:04;;;;;;;9.87;4.27;;;;;;;;;;4976603;28;20037;-70
2023/02/13 13:56:48;;;;;;;11.37;4.10;;;;;;;;;;4945123;28;20038;-69
2023/02/13 13:59:17;;;;;;;9.33;4.13;;;;;;;;;;4945517;28;20065;-70
2023/02/13 14:01:43;;;;;;;8.07;4.60;;;;;;;;;;4977059;28;20074;-71
2023/02/13 14:04:34;;;;;;;7.57;3.47;;;;;;;;;;4945076;28;20064;-70
2023/02/13 14:07:00;;;;;;;11.03;3.30;;;;;;;;;;4976658;28;20049;-72
2023/02/13 14:09:26;;;;;;;6.30;2.80;;;;;;;;;;4960224;28;20104;-70
2023/02/13 14:11:53;;;;;;;6.63;2.80;;;;;;;;;;4960213;28;20034;-74
2023/02/13 14:14:29;;;;;;;5.53;2.10;;;;;;;;;;4958393;28;20030;-69
2023/02/13 14:16:56;;;;;;;5.53;2.33;;;;;;;;;;4960702;28;20083;-70
2023/02/13 14:19:26;;;;;;;6.03;2.67;;;;;;;;;;4977276;28;20038;-71
2023/02/13 14:21:52;;;;;;;6.97;3.00;;;;;;;;;;4961456;28;20544;-70
2023/02/13 14:24:18;;;;;;;4.63;2.70;;;;;;;;;;4976833;28;20077;-71
2023/02/13 14:26:49;;;;;;;4.60;2.60;;;;;;;;;;4944292;28;20068;-69
2023/02/13 14:29:14;;;;;;;;;;;;;;;;;;4963174;28;20030;-71
2023/02/13 14:31:42;;;;;;;4.90;2.50;;;;;;;;;;4976116;28;19921;-70
2023/02/13 14:34:11;;;;;;;4.37;2.60;;;;;;;;;;4967740;28;20042;-72
2023/02/13 14:36:57;;;;;;;5.67;2.97;;;;;;;;;;4956213;28;20132;-69
2023/02/13 14:39:22;;;;;;;5.57;2.53;;;;;;;;;;4957585;28;20053;-77
2023/02/13 14:42:21;;;;;;;6.27;3.00;;;;;;;;;;4985982;28;20030;-70
2023/02/13 14:44:52;;;;;;;5.23;2.73;;;;;;;;;;4967631;28;20074;-71
2023/02/13 14:47:31;;;;;;;5.73;2.63;;;;;;;;;;4975534;28;20125;-70
2023/02/13 14:49:57;;;;;;;3.40;2.33;;;;;;;;;;4967013;28;20049;-70
2023/02/13 14:52:26;;;;;;;3.97;2.20;;;;;;;;;;4954161;28;20384;-71
2023/02/13 14:54:58;;;;;;;5.00;2.17;;;;;;;;;;4965438;28;20374;-69
2023/02/13 14:57:30;;;;;;;2.03;1.70;;;;;;;;;;4974822;28;20030;-71
2023/02/13 15:00:22;;;;;;;3.30;2.37;;;;;;;;;;4973155;28;20035;-71
2023/02/13 15:02:50;;;;;;;2.77;2.13;;;;;;;;;;4949801;28;20487;-71
2023/02/13 15:05:19;;;;;;;5.07;2.30;;;;;;;;;;4959007;28;20026;-72
2023/02/13 15:08:10;;;;;;;4.10;2.47;;;;;;;;;;4969886;28;20168;-72
2023/02/13 15:10:42;;;;;;;9.70;2.97;;;;;;;;;;4946016;28;20085;-73
2023/02/13 15:13:13;;;;;;;4.17;2.33;;;;;;;;;;4968040;28;20026;-73
2023/02/13 15:15:39;;;;;;;;;;;;;;;;;;5002046;28;20394;-73
2023/02/13 15:18:09;;;;;;;4.90;2.83;;;;;;;;;;4974874;28;19917;-73
2023/02/13 15:20:36;;;;;;;5.97;2.70;;;;;;;;;;4985519;28;20380;-72
2023/02/13 15:23:08;;;;;;;5.07;3.40;;;;;;;;;;4998499;28;20026;-74
2023/02/13 15:25:35;;;;;;;5.88;3.03;;;;;;;;;;5003795;28;20060;-77
2023/02/13 15:28:02;;;;;;;7.07;2.90;;;;;;;;;;4986987;28;20147;-76
2023/02/13 15:30:29;;;;;;;3.60;3.20;;;;;;;;;;4984319;28;20480;-78
2023/02/13 15:32:57;;;;;;;7.50;3.23;;;;;;;;;;4960074;28;20092;-76
2023/02/13 15:35:32;;;;;;;4.40;3.10;;;;;;;;;;4993285;28;20485;-73
2023/02/13 15:37:58;;;;;;;9.83;3.30;;;;;;;;;;4977798;28;20164;-72